sensor_id;sensor_type;location;lat;lon;timestamp;temperature;humidity
9975;DHT22;5028;50.974;4.968;2022-08-03T00:00:58;21.40;99.90
9975;DHT22;5028;50.974;4.968;2022-08-03T00:03:27;21.40;99.90
9975;DHT22;5028;50.974;4.968;2022-08-03T00:06:02;21.40;99.90
9975;DHT22;5028;50.974;4.968;2022-08-03T00:08:31;21.30;99.90
9975;DHT22;5028;50.974;4.968;2022-08-03T00:11:07;21.30;99.90
9975;DHT22;5028;50.974;4.968;2022-08-03T00:13:36;21.20;99.90
9975;DHT22;5028;50.974;4.968;2022-08-03T00:16:11;21.20;99.90
9975;DHT22;5028;50.974;4.968;2022-08-03T00:18:40;21.20;99.90
9975;DHT22;5028;50.974;4.968;2022-08-03T00:21:15;21.10;99.90
9975;DHT22;5028;50.974;4.968;2022-08-03T00:23:43;21.10;99.90
9975;DHT22;5028;50.974;4.968;2022-08-03T00:26:20;21.10;99.90
9975;DHT22;5028;50.974;4.968;2022-08-03T00:28:49;21.10;99.90
9975;DHT22;5028;50.974;4.968;2022-08-03T00:31:25;21.10;99.90
9975;DHT22;5028;50.974;4.968;2022-08-03T00:34:19;21.10;99.90
9975;DHT22;5028;50.974;4.968;2022-08-03T00:37:15;21.10;99.90
9975;DHT22;5028;50.974;4.968;2022-08-03T00:39:43;21.00;99.90
9975;DHT22;5028;50.974;4.968;2022-08-03T00:42:26;21.00;99.90
9975;DHT22;5028;50.974;4.968;2022-08-03T00:44:55;21.00;99.90
9975;DHT22;5028;50.974;4.968;2022-08-03T00:47:30;21.00;99.90
9975;DHT22;5028;50.974;4.968;2022-08-03T00:49:58;21.00;99.90
9975;DHT22;5028;50.974;4.968;2022-08-03T00:52:33;21.00;99.90
9975;DHT22;5028;50.974;4.968;2022-08-03T00:55:02;21.00;99.90
9975;DHT22;5028;50.974;4.968;2022-08-03T00:57:41;21.00;99.90
9975;DHT22;5028;50.974;4.968;2022-08-03T01:00:11;21.00;99.90
9975;DHT22;5028;50.974;4.968;2022-08-03T01:02:49;21.00;99.90
9975;DHT22;5028;50.974;4.968;2022-08-03T01:05:18;20.90;99.90
9975;DHT22;5028;50.974;4.968;2022-08-03T01:08:01;20.90;99.90
9975;DHT22;5028;50.974;4.968;2022-08-03T01:10:36;20.90;99.90
9975;DHT22;5028;50.974;4.968;2022-08-03T01:13:23;20.90;99.90
9975;DHT22;5028;50.974;4.968;2022-08-03T01:16:18;20.90;99.90
9975;DHT22;5028;50.974;4.968;2022-08-03T01:19:12;20.90;99.90
9975;DHT22;5028;50.974;4.968;2022-08-03T01:21:53;20.90;99.90
9975;DHT22;5028;50.974;4.968;2022-08-03T01:24:41;20.90;99.90
9975;DHT22;5028;50.974;4.968;2022-08-03T01:27:17;20.80;99.90
9975;DHT22;5028;50.974;4.968;2022-08-03T01:30:05;20.70;99.90
9975;DHT22;5028;50.974;4.968;2022-08-03T01:32:38;20.70;99.90
9975;DHT22;5028;50.974;4.968;2022-08-03T01:35:31;20.70;99.90
9975;DHT22;5028;50.974;4.968;2022-08-03T01:38:10;20.70;99.90
9975;DHT22;5028;50.974;4.968;2022-08-03T01:40:46;20.70;99.90
9975;DHT22;5028;50.974;4.968;2022-08-03T01:43:18;20.70;99.90
9975;DHT22;5028;50.974;4.968;2022-08-03T01:46:18;20.60;99.90
9975;DHT22;5028;50.974;4.968;2022-08-03T01:48:48;20.60;99.90
9975;DHT22;5028;50.974;4.968;2022-08-03T01:51:24;20.60;99.90
9975;DHT22;5028;50.974;4.968;2022-08-03T01:54:13;20.60;99.90
9975;DHT22;5028;50.974;4.968;2022-08-03T01:56:50;20.60;99.90
9975;DHT22;5028;50.974;4.968;2022-08-03T01:59:21;20.60;99.90
9975;DHT22;5028;50.974;4.968;2022-08-03T02:01:59;20.50;99.90
9975;DHT22;5028;50.974;4.968;2022-08-03T02:04:49;20.50;99.90
9975;DHT22;5028;50.974;4.968;2022-08-03T02:07:27;20.50;99.90
9975;DHT22;5028;50.974;4.968;2022-08-03T02:09:57;20.50;99.90
9975;DHT22;5028;50.974;4.968;2022-08-03T02:12:34;20.40;99.90
9975;DHT22;5028;50.974;4.968;2022-08-03T02:15:05;20.40;99.90
9975;DHT22;5028;50.974;4.968;2022-08-03T02:17:43;20.40;99.90
9975;DHT22;5028;50.974;4.968;2022-08-03T02:20:14;20.40;99.90
9975;DHT22;5028;50.974;4.968;2022-08-03T02:22:50;20.30;99.90
9975;DHT22;5028;50.974;4.968;2022-08-03T02:25:19;20.30;99.90
9975;DHT22;5028;50.974;4.968;2022-08-03T02:27:55;20.30;99.90
9975;DHT22;5028;50.974;4.968;2022-08-03T02:30:30;20.30;99.90
9975;DHT22;5028;50.974;4.968;2022-08-03T02:33:13;20.20;99.90
9975;DHT22;5028;50.974;4.968;2022-08-03T02:35:52;20.20;99.90
9975;DHT22;5028;50.974;4.968;2022-08-03T02:38:32;20.20;99.90
9975;DHT22;5028;50.974;4.968;2022-08-03T02:41:04;20.10;99.90
9975;DHT22;5028;50.974;4.968;2022-08-03T02:43:42;20.10;99.90
9975;DHT22;5028;50.974;4.968;2022-08-03T02:46:35;20.10;99.90
9975;DHT22;5028;50.974;4.968;2022-08-03T02:49:14;20.10;99.90
9975;DHT22;5028;50.974;4.968;2022-08-03T02:52:08;20.10;99.90
9975;DHT22;5028;50.974;4.968;2022-08-03T02:54:45;20.00;99.90
9975;DHT22;5028;50.974;4.968;2022-08-03T02:57:16;20.00;99.90
9975;DHT22;5028;50.974;4.968;2022-08-03T02:59:54;20.00;99.90
9975;DHT22;5028;50.974;4.968;2022-08-03T03:02:23;20.00;99.90
9975;DHT22;5028;50.974;4.968;2022-08-03T03:05:00;20.00;99.90
9975;DHT22;5028;50.974;4.968;2022-08-03T03:07:49;19.90;99.90
9975;DHT22;5028;50.974;4.968;2022-08-03T03:10:24;19.90;99.90
9975;DHT22;5028;50.974;4.968;2022-08-03T03:13:00;19.80;99.90
9975;DHT22;5028;50.974;4.968;2022-08-03T03:15:30;19.80;99.90
9975;DHT22;5028;50.974;4.968;2022-08-03T03:18:08;19.80;99.90
9975;DHT22;5028;50.974;4.968;2022-08-03T03:20:50;19.70;99.90
9975;DHT22;5028;50.974;4.968;2022-08-03T03:23:21;19.70;99.90
9975;DHT22;5028;50.974;4.968;2022-08-03T03:25:56;19.70;99.90
9975;DHT22;5028;50.974;4.968;2022-08-03T03:28:28;19.70;99.90
9975;DHT22;5028;50.974;4.968;2022-08-03T03:31:05;19.60;99.90
9975;DHT22;5028;50.974;4.968;2022-08-03T03:33:34;19.60;99.90
9975;DHT22;5028;50.974;4.968;2022-08-03T03:36:10;19.60;99.90
9975;DHT22;5028;50.974;4.968;2022-08-03T03:38:52;19.60;99.90
9975;DHT22;5028;50.974;4.968;2022-08-03T03:41:24;19.60;99.90
9975;DHT22;5028;50.974;4.968;2022-08-03T03:44:00;19.50;99.90
9975;DHT22;5028;50.974;4.968;2022-08-03T03:46:29;19.50;99.90
9975;DHT22;5028;50.974;4.968;2022-08-03T03:49:05;19.50;99.90
9975;DHT22;5028;50.974;4.968;2022-08-03T03:51:36;19.40;99.90
9975;DHT22;5028;50.974;4.968;2022-08-03T03:54:11;19.40;99.90
9975;DHT22;5028;50.974;4.968;2022-08-03T03:56:40;19.40;99.90
9975;DHT22;5028;50.974;4.968;2022-08-03T03:59:15;19.30;99.90
9975;DHT22;5028;50.974;4.968;2022-08-03T04:01:44;19.30;99.90
9975;DHT22;5028;50.974;4.968;2022-08-03T04:04:25;19.30;99.90
9975;DHT22;5028;50.974;4.968;2022-08-03T04:07:12;19.20;99.90
9975;DHT22;5028;50.974;4.968;2022-08-03T04:10:13;19.20;99.90
9975;DHT22;5028;50.974;4.968;2022-08-03T04:13:01;19.20;99.90
9975;DHT22;5028;50.974;4.968;2022-08-03T04:15:38;19.20;99.90
9975;DHT22;5028;50.974;4.968;2022-08-03T04:18:10;19.10;99.90
9975;DHT22;5028;50.974;4.968;2022-08-03T04:20:47;19.10;99.90
9975;DHT22;5028;50.974;4.968;2022-08-03T04:23:20;19.10;99.90
9975;DHT22;5028;50.974;4.968;2022-08-03T04:25:56;19.10;99.90
9975;DHT22;5028;50.974;4.968;2022-08-03T04:28:26;19.10;99.90
9975;DHT22;5028;50.974;4.968;2022-08-03T04:31:03;19.00;99.90
9975;DHT22;5028;50.974;4.968;2022-08-03T04:33:34;19.00;99.90
9975;DHT22;5028;50.974;4.968;2022-08-03T04:36:21;19.00;99.90
9975;DHT22;5028;50.974;4.968;2022-08-03T04:38:59;19.00;99.90
9975;DHT22;5028;50.974;4.968;2022-08-03T04:41:35;19.00;99.90
9975;DHT22;5028;50.974;4.968;2022-08-03T04:44:26;19.00;99.90
9975;DHT22;5028;50.974;4.968;2022-08-03T04:47:02;19.00;99.90
9975;DHT22;5028;50.974;4.968;2022-08-03T04:49:31;18.90;99.90
9975;DHT22;5028;50.974;4.968;2022-08-03T04:52:06;18.90;99.90
9975;DHT22;5028;50.974;4.968;2022-08-03T04:54:41;19.00;99.90
9975;DHT22;5028;50.974;4.968;2022-08-03T04:57:17;19.00;99.90
9975;DHT22;5028;50.974;4.968;2022-08-03T04:59:50;19.00;99.90
9975;DHT22;5028;50.974;4.968;2022-08-03T05:02:29;19.10;99.90
9975;DHT22;5028;50.974;4.968;2022-08-03T05:04:58;19.10;99.90
9975;DHT22;5028;50.974;4.968;2022-08-03T05:07:33;19.20;99.90
9975;DHT22;5028;50.974;4.968;2022-08-03T05:10:06;19.30;99.90
9975;DHT22;5028;50.974;4.968;2022-08-03T05:12:43;19.40;99.90
9975;DHT22;5028;50.974;4.968;2022-08-03T05:15:13;19.40;99.90
9975;DHT22;5028;50.974;4.968;2022-08-03T05:17:48;19.50;99.90
9975;DHT22;5028;50.974;4.968;2022-08-03T05:20:17;19.60;99.90
9975;DHT22;5028;50.974;4.968;2022-08-03T05:22:52;19.70;99.90
9975;DHT22;5028;50.974;4.968;2022-08-03T05:25:22;19.70;99.90
9975;DHT22;5028;50.974;4.968;2022-08-03T05:27:57;19.80;99.90
9975;DHT22;5028;50.974;4.968;2022-08-03T05:30:25;19.90;99.90
9975;DHT22;5028;50.974;4.968;2022-08-03T05:33:01;20.00;99.90
9975;DHT22;5028;50.974;4.968;2022-08-03T05:35:31;20.10;99.90
9975;DHT22;5028;50.974;4.968;2022-08-03T05:38:29;20.20;99.90
9975;DHT22;5028;50.974;4.968;2022-08-03T05:41:02;20.30;99.90
9975;DHT22;5028;50.974;4.968;2022-08-03T05:43:58;20.40;99.90
9975;DHT22;5028;50.974;4.968;2022-08-03T05:46:27;20.60;99.90
9975;DHT22;5028;50.974;4.968;2022-08-03T05:49:02;20.70;99.90
9975;DHT22;5028;50.974;4.968;2022-08-03T05:51:31;20.90;99.90
9975;DHT22;5028;50.974;4.968;2022-08-03T05:54:06;21.00;99.90
9975;DHT22;5028;50.974;4.968;2022-08-03T05:56:36;21.10;99.90
9975;DHT22;5028;50.974;4.968;2022-08-03T05:59:13;21.20;99.90
9975;DHT22;5028;50.974;4.968;2022-08-03T06:02:01;21.20;99.90
9975;DHT22;5028;50.974;4.968;2022-08-03T06:04:36;21.40;99.90
9975;DHT22;5028;50.974;4.968;2022-08-03T06:07:05;21.60;99.90
9975;DHT22;5028;50.974;4.968;2022-08-03T06:09:40;21.80;99.90
9975;DHT22;5028;50.974;4.968;2022-08-03T06:12:30;22.00;99.90
9975;DHT22;5028;50.974;4.968;2022-08-03T06:15:09;22.10;99.90
9975;DHT22;5028;50.974;4.968;2022-08-03T06:17:45;22.20;99.90
9975;DHT22;5028;50.974;4.968;2022-08-03T06:20:15;22.40;99.90
9975;DHT22;5028;50.974;4.968;2022-08-03T06:22:53;22.50;99.90
9975;DHT22;5028;50.974;4.968;2022-08-03T06:25:27;22.60;99.90
9975;DHT22;5028;50.974;4.968;2022-08-03T06:28:05;22.70;99.90
9975;DHT22;5028;50.974;4.968;2022-08-03T06:30:49;22.80;99.90
9975;DHT22;5028;50.974;4.968;2022-08-03T06:33:24;22.80;99.90
9975;DHT22;5028;50.974;4.968;2022-08-03T06:36:20;22.80;99.90
9975;DHT22;5028;50.974;4.968;2022-08-03T06:38:55;22.80;99.90
9975;DHT22;5028;50.974;4.968;2022-08-03T06:41:24;22.80;99.90
9975;DHT22;5028;50.974;4.968;2022-08-03T06:44:11;22.80;99.90
9975;DHT22;5028;50.974;4.968;2022-08-03T06:46:40;22.80;99.90
9975;DHT22;5028;50.974;4.968;2022-08-03T06:49:15;22.80;99.90
9975;DHT22;5028;50.974;4.968;2022-08-03T06:51:45;22.80;99.90
9975;DHT22;5028;50.974;4.968;2022-08-03T06:54:35;22.80;99.90
9975;DHT22;5028;50.974;4.968;2022-08-03T06:57:05;22.80;99.90
9975;DHT22;5028;50.974;4.968;2022-08-03T06:59:45;22.90;99.90
9975;DHT22;5028;50.974;4.968;2022-08-03T07:02:33;22.90;99.90
9975;DHT22;5028;50.974;4.968;2022-08-03T07:05:09;22.90;99.90
9975;DHT22;5028;50.974;4.968;2022-08-03T07:07:37;22.90;99.90
9975;DHT22;5028;50.974;4.968;2022-08-03T07:10:12;22.90;99.90
9975;DHT22;5028;50.974;4.968;2022-08-03T07:12:41;23.00;99.90
9975;DHT22;5028;50.974;4.968;2022-08-03T07:15:23;23.00;99.90
9975;DHT22;5028;50.974;4.968;2022-08-03T07:18:12;23.10;99.90
9975;DHT22;5028;50.974;4.968;2022-08-03T07:20:55;23.20;99.90
9975;DHT22;5028;50.974;4.968;2022-08-03T07:23:24;23.20;99.90
9975;DHT22;5028;50.974;4.968;2022-08-03T07:25:59;23.20;99.90
9975;DHT22;5028;50.974;4.968;2022-08-03T07:28:28;23.30;99.90
9975;DHT22;5028;50.974;4.968;2022-08-03T07:31:05;23.40;99.90
9975;DHT22;5028;50.974;4.968;2022-08-03T07:33:33;23.50;99.90
9975;DHT22;5028;50.974;4.968;2022-08-03T07:36:08;23.50;99.90
9975;DHT22;5028;50.974;4.968;2022-08-03T07:38:49;23.60;99.90
9975;DHT22;5028;50.974;4.968;2022-08-03T07:41:24;23.80;99.90
9975;DHT22;5028;50.974;4.968;2022-08-03T07:43:59;23.80;99.90
9975;DHT22;5028;50.974;4.968;2022-08-03T07:46:29;23.90;99.90
9975;DHT22;5028;50.974;4.968;2022-08-03T07:49:05;24.00;99.90
9975;DHT22;5028;50.974;4.968;2022-08-03T07:51:34;24.00;99.90
9975;DHT22;5028;50.974;4.968;2022-08-03T07:54:09;24.10;99.90
9975;DHT22;5028;50.974;4.968;2022-08-03T07:56:38;24.20;99.90
9975;DHT22;5028;50.974;4.968;2022-08-03T07:59:13;24.30;99.90
9975;DHT22;5028;50.974;4.968;2022-08-03T08:01:43;24.40;99.90
9975;DHT22;5028;50.974;4.968;2022-08-03T08:04:18;24.50;99.90
9975;DHT22;5028;50.974;4.968;2022-08-03T08:06:47;24.60;99.90
9975;DHT22;5028;50.974;4.968;2022-08-03T08:09:22;24.70;99.90
9975;DHT22;5028;50.974;4.968;2022-08-03T08:11:54;24.70;99.90
9975;DHT22;5028;50.974;4.968;2022-08-03T08:14:41;24.80;99.90
9975;DHT22;5028;50.974;4.968;2022-08-03T08:17:13;24.90;99.90
9975;DHT22;5028;50.974;4.968;2022-08-03T08:19:48;25.10;99.90
9975;DHT22;5028;50.974;4.968;2022-08-03T08:22:19;25.30;99.90
9975;DHT22;5028;50.974;4.968;2022-08-03T08:24:57;25.40;99.90
9975;DHT22;5028;50.974;4.968;2022-08-03T08:27:27;25.70;99.90
9975;DHT22;5028;50.974;4.968;2022-08-03T08:30:23;25.70;99.90
9975;DHT22;5028;50.974;4.968;2022-08-03T08:32:53;25.90;99.90
9975;DHT22;5028;50.974;4.968;2022-08-03T08:35:28;26.00;99.90
9975;DHT22;5028;50.974;4.968;2022-08-03T08:38:11;26.30;99.90
9975;DHT22;5028;50.974;4.968;2022-08-03T08:40:45;26.40;99.90
9975;DHT22;5028;50.974;4.968;2022-08-03T08:43:14;26.40;99.90
9975;DHT22;5028;50.974;4.968;2022-08-03T08:45:51;26.60;99.90
9975;DHT22;5028;50.974;4.968;2022-08-03T08:48:24;26.70;99.90
9975;DHT22;5028;50.974;4.968;2022-08-03T08:51:00;27.10;99.90
9975;DHT22;5028;50.974;4.968;2022-08-03T08:53:30;27.20;99.90
9975;DHT22;5028;50.974;4.968;2022-08-03T08:56:13;27.20;99.90
9975;DHT22;5028;50.974;4.968;2022-08-03T08:58:46;27.50;99.90
9975;DHT22;5028;50.974;4.968;2022-08-03T09:01:22;27.70;99.90
9975;DHT22;5028;50.974;4.968;2022-08-03T09:03:53;27.80;99.90
9975;DHT22;5028;50.974;4.968;2022-08-03T09:06:28;28.10;99.90
9975;DHT22;5028;50.974;4.968;2022-08-03T09:08:57;28.20;99.90
9975;DHT22;5028;50.974;4.968;2022-08-03T09:11:32;28.40;99.90
9975;DHT22;5028;50.974;4.968;2022-08-03T09:14:21;28.60;99.90
9975;DHT22;5028;50.974;4.968;2022-08-03T09:17:05;28.70;99.90
9975;DHT22;5028;50.974;4.968;2022-08-03T09:20:04;28.80;99.90
9975;DHT22;5028;50.974;4.968;2022-08-03T09:22:52;29.40;99.90
9975;DHT22;5028;50.974;4.968;2022-08-03T09:25:27;29.70;99.90
9975;DHT22;5028;50.974;4.968;2022-08-03T09:28:08;29.80;99.90
9975;DHT22;5028;50.974;4.968;2022-08-03T09:30:38;30.20;99.90
9975;DHT22;5028;50.974;4.968;2022-08-03T09:33:15;30.50;99.90
9975;DHT22;5028;50.974;4.968;2022-08-03T09:35:47;30.60;99.90
9975;DHT22;5028;50.974;4.968;2022-08-03T09:38:29;30.60;99.90
9975;DHT22;5028;50.974;4.968;2022-08-03T09:40:58;30.20;99.90
9975;DHT22;5028;50.974;4.968;2022-08-03T09:43:45;30.50;99.90
9975;DHT22;5028;50.974;4.968;2022-08-03T09:46:13;30.30;99.90
9975;DHT22;5028;50.974;4.968;2022-08-03T09:48:48;30.50;99.90
9975;DHT22;5028;50.974;4.968;2022-08-03T09:51:23;30.50;99.90
9975;DHT22;5028;50.974;4.968;2022-08-03T09:54:25;30.50;99.90
9975;DHT22;5028;50.974;4.968;2022-08-03T09:56:54;30.90;99.90
9975;DHT22;5028;50.974;4.968;2022-08-03T09:59:30;31.00;99.90
9975;DHT22;5028;50.974;4.968;2022-08-03T10:01:59;31.20;99.90
9975;DHT22;5028;50.974;4.968;2022-08-03T10:04:46;31.00;99.90
9975;DHT22;5028;50.974;4.968;2022-08-03T10:07:19;31.20;99.90
9975;DHT22;5028;50.974;4.968;2022-08-03T10:09:56;31.70;99.90
9975;DHT22;5028;50.974;4.968;2022-08-03T10:12:45;31.80;99.90
9975;DHT22;5028;50.974;4.968;2022-08-03T10:15:22;31.50;99.90
9975;DHT22;5028;50.974;4.968;2022-08-03T10:18:11;31.70;99.90
9975;DHT22;5028;50.974;4.968;2022-08-03T10:20:49;31.80;99.90
9975;DHT22;5028;50.974;4.968;2022-08-03T10:23:20;32.00;99.90
9975;DHT22;5028;50.974;4.968;2022-08-03T10:26:02;32.00;99.90
9975;DHT22;5028;50.974;4.968;2022-08-03T10:28:34;32.40;99.90
9975;DHT22;5028;50.974;4.968;2022-08-03T10:31:12;32.50;99.90
9975;DHT22;5028;50.974;4.968;2022-08-03T10:33:43;32.30;99.90
9975;DHT22;5028;50.974;4.968;2022-08-03T10:36:29;32.40;99.90
9975;DHT22;5028;50.974;4.968;2022-08-03T10:39:01;32.70;99.90
9975;DHT22;5028;50.974;4.968;2022-08-03T10:41:42;32.50;99.90
9975;DHT22;5028;50.974;4.968;2022-08-03T10:44:17;32.30;99.90
9975;DHT22;5028;50.974;4.968;2022-08-03T10:46:53;32.30;99.90
9975;DHT22;5028;50.974;4.968;2022-08-03T10:49:22;32.60;99.80
9975;DHT22;5028;50.974;4.968;2022-08-03T10:52:02;32.80;99.40
9975;DHT22;5028;50.974;4.968;2022-08-03T10:54:59;33.00;99.20
9975;DHT22;5028;50.974;4.968;2022-08-03T10:57:53;33.00;99.70
9975;DHT22;5028;50.974;4.968;2022-08-03T11:00:26;33.50;99.00
9975;DHT22;5028;50.974;4.968;2022-08-03T11:03:07;33.30;98.40
9975;DHT22;5028;50.974;4.968;2022-08-03T11:05:39;33.40;98.40
9975;DHT22;5028;50.974;4.968;2022-08-03T11:08:27;33.40;98.30
9975;DHT22;5028;50.974;4.968;2022-08-03T11:11:00;33.20;98.10
9975;DHT22;5028;50.974;4.968;2022-08-03T11:13:34;33.10;98.50
9975;DHT22;5028;50.974;4.968;2022-08-03T11:16:18;32.70;99.10
9975;DHT22;5028;50.974;4.968;2022-08-03T11:18:56;33.00;98.80
9975;DHT22;5028;50.974;4.968;2022-08-03T11:25:02;33.20;98.90
9975;DHT22;5028;50.974;4.968;2022-08-03T11:27:33;33.30;98.70
9975;DHT22;5028;50.974;4.968;2022-08-03T11:30:09;34.00;97.80
9975;DHT22;5028;50.974;4.968;2022-08-03T11:32:51;34.00;97.10
9975;DHT22;5028;50.974;4.968;2022-08-03T11:35:28;33.80;97.20
9975;DHT22;5028;50.974;4.968;2022-08-03T11:38:07;33.90;97.20
9975;DHT22;5028;50.974;4.968;2022-08-03T11:40:44;33.90;97.30
9975;DHT22;5028;50.974;4.968;2022-08-03T11:43:44;34.10;97.10
9975;DHT22;5028;50.974;4.968;2022-08-03T11:46:19;34.60;96.80
9975;DHT22;5028;50.974;4.968;2022-08-03T11:49:03;34.50;96.60
9975;DHT22;5028;50.974;4.968;2022-08-03T11:51:52;33.80;97.10
9975;DHT22;5028;50.974;4.968;2022-08-03T11:54:21;33.90;96.70
9975;DHT22;5028;50.974;4.968;2022-08-03T11:56:57;33.60;96.60
9975;DHT22;5028;50.974;4.968;2022-08-03T11:59:32;33.70;97.40
9975;DHT22;5028;50.974;4.968;2022-08-03T12:02:07;34.30;96.60
9975;DHT22;5028;50.974;4.968;2022-08-03T12:04:48;34.30;96.20
9975;DHT22;5028;50.974;4.968;2022-08-03T12:07:24;34.50;96.10
9975;DHT22;5028;50.974;4.968;2022-08-03T12:10:17;34.20;95.70
9975;DHT22;5028;50.974;4.968;2022-08-03T12:12:55;33.80;96.20
9975;DHT22;5028;50.974;4.968;2022-08-03T12:15:26;33.80;96.60
9975;DHT22;5028;50.974;4.968;2022-08-03T12:18:11;34.00;96.20
9975;DHT22;5028;50.974;4.968;2022-08-03T12:20:40;34.20;95.80
9975;DHT22;5028;50.974;4.968;2022-08-03T12:23:16;34.50;96.20
9975;DHT22;5028;50.974;4.968;2022-08-03T12:25:46;34.90;95.40
9975;DHT22;5028;50.974;4.968;2022-08-03T12:28:21;35.30;95.00
9975;DHT22;5028;50.974;4.968;2022-08-03T12:31:05;35.20;95.50
9975;DHT22;5028;50.974;4.968;2022-08-03T12:33:55;35.90;95.10
9975;DHT22;5028;50.974;4.968;2022-08-03T12:36:27;36.30;94.20
9975;DHT22;5028;50.974;4.968;2022-08-03T12:39:05;35.60;94.00
9975;DHT22;5028;50.974;4.968;2022-08-03T12:41:35;34.20;94.90
9975;DHT22;5028;50.974;4.968;2022-08-03T12:44:09;33.60;95.50
9975;DHT22;5028;50.974;4.968;2022-08-03T12:46:40;34.30;95.50
9975;DHT22;5028;50.974;4.968;2022-08-03T12:49:15;34.60;94.60
9975;DHT22;5028;50.974;4.968;2022-08-03T12:51:58;34.60;95.30
9975;DHT22;5028;50.974;4.968;2022-08-03T12:54:40;35.10;95.20
9975;DHT22;5028;50.974;4.968;2022-08-03T12:57:10;35.30;94.20
9975;DHT22;5028;50.974;4.968;2022-08-03T12:59:46;35.60;94.70
9975;DHT22;5028;50.974;4.968;2022-08-03T13:02:22;36.30;94.30
9975;DHT22;5028;50.974;4.968;2022-08-03T13:04:57;36.60;93.60
9975;DHT22;5028;50.974;4.968;2022-08-03T13:07:40;36.80;93.00
9975;DHT22;5028;50.974;4.968;2022-08-03T13:10:27;36.30;93.20
9975;DHT22;5028;50.974;4.968;2022-08-03T13:12:55;35.80;93.20
9975;DHT22;5028;50.974;4.968;2022-08-03T13:15:32;35.80;93.40
9975;DHT22;5028;50.974;4.968;2022-08-03T13:18:15;36.00;92.80
9975;DHT22;5028;50.974;4.968;2022-08-03T13:20:50;36.30;92.70
9975;DHT22;5028;50.974;4.968;2022-08-03T13:23:19;36.50;92.90
9975;DHT22;5028;50.974;4.968;2022-08-03T13:25:53;36.70;92.90
9975;DHT22;5028;50.974;4.968;2022-08-03T13:28:22;37.20;91.90
9975;DHT22;5028;50.974;4.968;2022-08-03T13:30:56;36.80;91.80
9975;DHT22;5028;50.974;4.968;2022-08-03T13:33:27;36.40;91.80
9975;DHT22;5028;50.974;4.968;2022-08-03T13:36:01;36.10;92.10
9975;DHT22;5028;50.974;4.968;2022-08-03T13:38:30;35.90;92.30
9975;DHT22;5028;50.974;4.968;2022-08-03T13:41:05;35.60;92.60
9975;DHT22;5028;50.974;4.968;2022-08-03T13:43:33;35.10;92.60
9975;DHT22;5028;50.974;4.968;2022-08-03T13:46:07;34.70;93.40
9975;DHT22;5028;50.974;4.968;2022-08-03T13:48:37;35.40;92.90
9975;DHT22;5028;50.974;4.968;2022-08-03T13:51:18;36.20;92.90
9975;DHT22;5028;50.974;4.968;2022-08-03T13:53:49;36.70;91.40
9975;DHT22;5028;50.974;4.968;2022-08-03T13:56:23;36.70;91.00
9975;DHT22;5028;50.974;4.968;2022-08-03T13:58:52;36.70;91.40
9975;DHT22;5028;50.974;4.968;2022-08-03T14:01:26;36.80;91.10
9975;DHT22;5028;50.974;4.968;2022-08-03T14:04:16;37.20;91.40
9975;DHT22;5028;50.974;4.968;2022-08-03T14:06:53;37.30;90.70
9975;DHT22;5028;50.974;4.968;2022-08-03T14:09:21;37.50;90.50
9975;DHT22;5028;50.974;4.968;2022-08-03T14:11:55;37.90;90.90
9975;DHT22;5028;50.974;4.968;2022-08-03T14:14:34;38.20;90.30
9975;DHT22;5028;50.974;4.968;2022-08-03T14:17:09;38.40;87.80
9975;DHT22;5028;50.974;4.968;2022-08-03T14:19:39;36.80;90.40
9975;DHT22;5028;50.974;4.968;2022-08-03T14:22:19;36.10;91.10
9975;DHT22;5028;50.974;4.968;2022-08-03T14:24:47;36.00;90.80
9975;DHT22;5028;50.974;4.968;2022-08-03T14:27:23;35.40;90.90
9975;DHT22;5028;50.974;4.968;2022-08-03T14:29:51;35.30;91.30
9975;DHT22;5028;50.974;4.968;2022-08-03T14:32:26;35.60;90.90
9975;DHT22;5028;50.974;4.968;2022-08-03T14:34:55;35.70;90.90
9975;DHT22;5028;50.974;4.968;2022-08-03T14:37:29;35.50;90.60
9975;DHT22;5028;50.974;4.968;2022-08-03T14:39:59;35.40;91.70
9975;DHT22;5028;50.974;4.968;2022-08-03T14:42:33;35.40;90.50
9975;DHT22;5028;50.974;4.968;2022-08-03T14:45:02;34.80;90.90
9975;DHT22;5028;50.974;4.968;2022-08-03T14:47:46;34.80;91.10
9975;DHT22;5028;50.974;4.968;2022-08-03T14:50:35;35.30;91.40
9975;DHT22;5028;50.974;4.968;2022-08-03T14:53:17;35.50;90.80
9975;DHT22;5028;50.974;4.968;2022-08-03T14:55:52;35.70;90.90
9975;DHT22;5028;50.974;4.968;2022-08-03T14:58:29;35.70;90.60
9975;DHT22;5028;50.974;4.968;2022-08-03T15:00:58;35.90;90.30
9975;DHT22;5028;50.974;4.968;2022-08-03T15:03:52;36.00;90.80
9975;DHT22;5028;50.974;4.968;2022-08-03T15:06:22;35.90;90.40
9975;DHT22;5028;50.974;4.968;2022-08-03T15:08:56;35.60;90.00
9975;DHT22;5028;50.974;4.968;2022-08-03T15:11:45;35.00;90.30
9975;DHT22;5028;50.974;4.968;2022-08-03T15:14:19;34.20;90.80
9975;DHT22;5028;50.974;4.968;2022-08-03T15:16:59;33.80;91.30
9975;DHT22;5028;50.974;4.968;2022-08-03T15:19:34;33.70;91.80
9975;DHT22;5028;50.974;4.968;2022-08-03T15:22:23;33.60;91.90
9975;DHT22;5028;50.974;4.968;2022-08-03T15:25:01;33.70;91.40
9975;DHT22;5028;50.974;4.968;2022-08-03T15:27:50;33.70;91.60
9975;DHT22;5028;50.974;4.968;2022-08-03T15:30:30;33.80;91.50
9975;DHT22;5028;50.974;4.968;2022-08-03T15:33:07;33.60;91.10
9975;DHT22;5028;50.974;4.968;2022-08-03T15:35:36;33.50;91.60
9975;DHT22;5028;50.974;4.968;2022-08-03T15:38:15;33.50;91.40
9975;DHT22;5028;50.974;4.968;2022-08-03T15:40:52;33.50;91.70
9975;DHT22;5028;50.974;4.968;2022-08-03T15:43:21;33.40;91.40
9975;DHT22;5028;50.974;4.968;2022-08-03T15:45:55;33.50;90.80
9975;DHT22;5028;50.974;4.968;2022-08-03T15:48:46;33.30;90.80
9975;DHT22;5028;50.974;4.968;2022-08-03T15:51:27;33.10;91.10
9975;DHT22;5028;50.974;4.968;2022-08-03T15:54:03;33.10;91.50
9975;DHT22;5028;50.974;4.968;2022-08-03T15:56:38;33.10;90.90
9975;DHT22;5028;50.974;4.968;2022-08-03T15:59:13;33.10;91.60
9975;DHT22;5028;50.974;4.968;2022-08-03T16:01:42;33.20;91.50
9975;DHT22;5028;50.974;4.968;2022-08-03T16:04:19;33.10;91.50
9975;DHT22;5028;50.974;4.968;2022-08-03T16:06:49;33.10;91.50
9975;DHT22;5028;50.974;4.968;2022-08-03T16:09:25;33.10;91.60
9975;DHT22;5028;50.974;4.968;2022-08-03T16:12:09;33.10;91.90
9975;DHT22;5028;50.974;4.968;2022-08-03T16:14:47;33.10;91.60
9975;DHT22;5028;50.974;4.968;2022-08-03T16:17:19;33.10;91.50
9975;DHT22;5028;50.974;4.968;2022-08-03T16:19:55;33.00;91.70
9975;DHT22;5028;50.974;4.968;2022-08-03T16:22:24;33.00;91.40
9975;DHT22;5028;50.974;4.968;2022-08-03T16:24:54;32.80;91.70
9975;DHT22;5028;50.974;4.968;2022-08-03T16:27:28;32.70;91.40
9975;DHT22;5028;50.974;4.968;2022-08-03T16:30:17;32.60;91.60
9975;DHT22;5028;50.974;4.968;2022-08-03T16:32:52;32.60;91.70
9975;DHT22;5028;50.974;4.968;2022-08-03T16:35:27;32.50;91.90
9975;DHT22;5028;50.974;4.968;2022-08-03T16:37:55;32.40;92.10
9975;DHT22;5028;50.974;4.968;2022-08-03T16:40:36;32.40;92.00
9975;DHT22;5028;50.974;4.968;2022-08-03T16:43:14;32.20;91.80
9975;DHT22;5028;50.974;4.968;2022-08-03T16:45:50;32.10;92.00
9975;DHT22;5028;50.974;4.968;2022-08-03T16:48:18;32.10;92.40
9975;DHT22;5028;50.974;4.968;2022-08-03T16:50:59;32.00;92.30
9975;DHT22;5028;50.974;4.968;2022-08-03T16:53:41;31.90;92.20
9975;DHT22;5028;50.974;4.968;2022-08-03T16:56:35;31.90;92.60
9975;DHT22;5028;50.974;4.968;2022-08-03T16:59:04;31.90;92.30
9975;DHT22;5028;50.974;4.968;2022-08-03T17:01:39;31.90;92.80
9975;DHT22;5028;50.974;4.968;2022-08-03T17:04:13;31.90;92.10
9975;DHT22;5028;50.974;4.968;2022-08-03T17:06:48;31.80;92.60